Time;durP1;ratioP1;P1;durP2;ratioP2;P2;SDS_P1;SDS_P2;PMS_P1;PMS_P2;Temp;Humidity;BMP_temperature;BMP_pressure;BME280_temperature;BME280_humidity;BME280_pressure;Samples;Min_cycle;Max_cycle;Signal;HPM_P1;HPM_P2
2023/12/14 00:00:47;;;;;;;19.27;16.95;;;8.50;99.90;;;;;;5065577;28;20415;-69
2023/12/14 00:03:14;;;;;;;18.67;16.83;;;8.50;99.90;;;;;;5065536;28;20416;-69
2023/12/14 00:05:42;;;;;;;19.95;18.00;;;8.50;99.90;;;;;;5063973;28;20447;-69
2023/12/14 00:08:09;;;;;;;20.97;17.67;;;8.50;99.90;;;;;;5065726;28;20518;-69
2023/12/14 00:10:35;;;;;;;20.83;18.00;;;8.50;99.90;;;;;;5060237;28;20439;-69
2023/12/14 00:13:04;;;;;;;20.13;18.00;;;8.50;99.90;;;;;;5065705;28;20499;-69
2023/12/14 00:15:30;;;;;;;20.87;18.67;;;8.50;99.90;;;;;;5064913;28;20501;-69
2023/12/14 00:17:57;;;;;;;21.07;18.73;;;8.50;99.90;;;;;;5065293;28;20423;-69
2023/12/14 00:20:24;;;;;;;21.25;19.05;;;8.50;99.90;;;;;;5065876;28;20427;-69
2023/12/14 00:22:52;;;;;;;21.88;19.67;;;8.50;99.90;;;;;;5065747;28;20491;-69
2023/12/14 00:25:19;;;;;;;21.90;19.60;;;8.50;99.90;;;;;;5065488;28;20416;-69
2023/12/14 00:27:45;;;;;;;23.20;20.70;;;8.50;99.90;;;;;;5061988;28;20458;-69
2023/12/14 00:30:13;;;;;;;22.70;19.80;;;8.50;99.90;;;;;;5065520;28;20543;-69
2023/12/14 00:32:39;;;;;;;26.35;20.92;;;8.50;99.90;;;;;;5067078;28;20412;-69
2023/12/14 00:35:07;;;;;;;27.90;22.30;;;8.50;99.90;;;;;;5070863;28;20423;-69
2023/12/14 00:37:33;;;;;;;27.17;22.75;;;8.50;99.90;;;;;;5069897;28;20440;-69
2023/12/14 00:40:02;;;;;;;31.63;21.97;;;8.50;99.90;;;;;;5071589;28;20507;-69
2023/12/14 00:42:28;;;;;;;31.42;23.00;;;8.50;99.90;;;;;;5064609;28;20467;-69
2023/12/14 00:44:55;;;;;;;32.10;23.05;;;8.50;99.90;;;;;;5060932;28;20850;-69
2023/12/14 00:47:22;;;;;;;32.13;23.27;;;8.50;99.90;;;;;;5064333;28;20805;-69
2023/12/14 00:49:48;;;;;;;32.92;24.48;;;8.40;99.90;;;;;;5063928;28;20428;-70
2023/12/14 00:52:15;;;;;;;33.53;24.93;;;8.40;99.90;;;;;;5065214;28;20506;-69
2023/12/14 00:54:42;;;;;;;33.07;23.80;;;8.40;99.90;;;;;;5067930;28;20426;-69
2023/12/14 00:57:10;;;;;;;35.22;24.92;;;8.40;99.90;;;;;;5069874;28;20709;-69
2023/12/14 00:59:36;;;;;;;34.53;24.13;;;8.40;99.90;;;;;;5070391;28;20580;-69
2023/12/14 01:02:03;;;;;;;34.17;23.17;;;8.40;99.90;;;;;;5070407;28;20412;-69
2023/12/14 01:04:30;;;;;;;36.45;26.40;;;8.40;99.90;;;;;;5067331;28;20466;-69
2023/12/14 01:06:57;;;;;;;36.30;25.30;;;8.40;99.90;;;;;;5066006;28;20423;-69
2023/12/14 01:09:24;;;;;;;32.50;24.60;;;8.40;99.90;;;;;;5069653;28;20416;-69
2023/12/14 01:11:50;;;;;;;35.83;25.67;;;8.40;99.90;;;;;;5067300;28;20441;-69
2023/12/14 01:14:18;;;;;;;33.55;24.98;;;8.40;99.90;;;;;;5073278;28;20435;-69
2023/12/14 01:16:45;;;;;;;32.85;25.77;;;8.40;99.90;;;;;;5070888;28;20432;-69
2023/12/14 01:19:12;;;;;;;36.22;25.20;;;8.40;99.90;;;;;;5071981;28;20499;-69
2023/12/14 01:21:38;;;;;;;33.50;25.08;;;8.40;99.90;;;;;;5066811;28;20785;-69
2023/12/14 01:24:06;;;;;;;30.38;23.73;;;8.40;99.90;;;;;;5066516;28;20412;-71
2023/12/14 01:26:33;;;;;;;34.50;25.90;;;8.40;99.90;;;;;;5067112;28;20428;-69
2023/12/14 01:28:59;;;;;;;32.13;23.40;;;8.50;99.90;;;;;;5064756;28;20518;-70
2023/12/14 01:31:27;;;;;;;35.83;25.50;;;8.50;99.90;;;;;;5064471;28;20573;-69
2023/12/14 01:33:54;;;;;;;35.17;26.05;;;8.40;99.90;;;;;;5066431;28;20412;-69
2023/12/14 01:36:22;;;;;;;36.05;25.58;;;8.40;99.90;;;;;;5057148;28;20443;-70
2023/12/14 01:38:49;;;;;;;35.10;26.23;;;8.40;99.90;;;;;;5064476;28;20485;-69
2023/12/14 01:41:15;;;;;;;38.35;26.73;;;8.40;99.90;;;;;;5064628;28;20404;-69
2023/12/14 01:43:42;;;;;;;39.33;26.80;;;8.40;99.90;;;;;;5064442;28;20552;-69
2023/12/14 01:46:09;;;;;;;41.83;27.55;;;8.40;99.90;;;;;;5063843;28;20543;-69
2023/12/14 01:48:37;;;;;;;37.75;26.13;;;8.40;99.90;;;;;;5064027;28;20507;-69
2023/12/14 01:51:04;;;;;;;41.03;26.98;;;8.40;99.90;;;;;;5064823;28;20932;-69
2023/12/14 01:53:31;;;;;;;40.47;26.67;;;8.40;99.90;;;;;;5057677;28;20419;-70
2023/12/14 01:55:58;;;;;;;40.00;26.95;;;8.40;99.90;;;;;;5062448;28;20435;-69
2023/12/14 01:58:26;;;;;;;38.85;26.30;;;8.40;99.90;;;;;;5063236;28;20480;-69
2023/12/14 02:01:00;;;;;;;38.30;26.02;;;8.40;99.90;;;;;;5065555;28;20810;-69
2023/12/14 02:03:27;;;;;;;39.92;26.40;;;8.40;99.90;;;;;;5063238;28;20407;-69
2023/12/14 02:05:57;;;;;;;42.03;27.63;;;8.40;99.90;;;;;;5064161;28;20865;-69
2023/12/14 02:08:24;;;;;;;43.58;27.92;;;8.40;99.90;;;;;;5064300;28;20423;-69
2023/12/14 02:10:51;;;;;;;39.20;26.20;;;8.40;99.90;;;;;;5058240;28;20432;-69
2023/12/14 02:13:18;;;;;;;38.30;26.58;;;8.40;99.90;;;;;;5064519;28;20823;-69
2023/12/14 02:15:45;;;;;;;41.13;26.87;;;8.40;99.90;;;;;;5064259;28;20432;-68
2023/12/14 02:18:12;;;;;;;42.83;28.75;;;8.40;99.90;;;;;;5065272;28;20861;-69
2023/12/14 02:20:38;;;;;;;37.53;25.55;;;8.40;99.90;;;;;;5064951;28;20427;-69
2023/12/14 02:23:07;;;;;;;37.00;26.00;;;8.40;99.90;;;;;;5064068;28;20818;-69
2023/12/14 02:25:33;;;;;;;37.35;26.73;;;8.40;99.90;;;;;;5063964;28;20438;-69
2023/12/14 02:28:00;;;;;;;36.03;25.42;;;8.40;99.90;;;;;;5059092;28;20419;-69
2023/12/14 02:30:27;;;;;;;35.63;26.30;;;8.50;99.90;;;;;;5063763;28;20530;-69
2023/12/14 02:32:53;;;;;;;37.28;25.85;;;8.40;99.90;;;;;;5063841;28;20763;-69
2023/12/14 02:35:20;;;;;;;36.58;25.55;;;8.50;99.90;;;;;;5063408;28;20566;-69
2023/12/14 02:37:47;;;;;;;35.28;25.92;;;8.50;99.90;;;;;;5063962;28;20407;-69
2023/12/14 02:40:15;;;;;;;36.25;25.38;;;8.50;99.90;;;;;;5063935;28;20427;-69
2023/12/14 02:42:42;;;;;;;38.97;26.03;;;8.50;99.90;;;;;;5063547;28;20407;-69
2023/12/14 02:45:10;;;;;;;35.58;25.30;;;8.50;99.90;;;;;;5059722;28;20732;-69
2023/12/14 02:47:36;;;;;;;38.30;26.67;;;8.50;99.90;;;;;;5063390;28;20407;-69
2023/12/14 02:50:03;;;;;;;37.67;26.65;;;8.50;99.90;;;;;;5062931;28;20431;-69
2023/12/14 02:52:30;;;;;;;34.28;25.27;;;8.50;99.90;;;;;;5063854;28;20438;-69
2023/12/14 02:54:57;;;;;;;34.65;25.63;;;8.50;99.90;;;;;;5062915;28;20411;-69
2023/12/14 02:57:25;;;;;;;34.22;25.05;;;8.50;99.90;;;;;;5065341;28;20499;-69
2023/12/14 02:59:52;;;;;;;30.83;23.73;;;8.50;99.90;;;;;;5064765;28;20439;-69
2023/12/14 03:02:18;;;;;;;28.00;21.10;;;8.50;99.90;;;;;;5063304;28;20534;-69
2023/12/14 03:04:45;;;;;;;29.17;21.98;;;8.50;99.90;;;;;;5067868;28;20431;-69
2023/12/14 03:07:12;;;;;;;29.08;22.48;;;8.50;99.90;;;;;;5065440;28;20684;-69
2023/12/14 03:09:43;;;;;;;26.20;20.17;;;8.50;99.90;;;;;;5066842;28;20435;-69
2023/12/14 03:12:10;;;;;;;24.83;20.20;;;8.50;99.90;;;;;;5066746;28;20534;-69
2023/12/14 03:14:38;;;;;;;26.40;21.17;;;8.50;99.90;;;;;;5069677;28;21051;-69
2023/12/14 03:17:05;;;;;;;26.90;21.30;;;8.50;99.90;;;;;;5064435;28;20466;-69
2023/12/14 03:19:32;;;;;;;26.33;20.58;;;8.40;99.90;;;;;;5064905;28;20424;-69
2023/12/14 03:21:58;;;;;;;30.10;21.30;;;8.40;99.90;;;;;;5066301;28;20423;-69
2023/12/14 03:24:25;;;;;;;29.55;22.13;;;8.40;99.90;;;;;;5066771;28;20415;-69
2023/12/14 03:26:52;;;;;;;29.27;22.10;;;8.40;99.90;;;;;;5065331;28;20439;-69
2023/12/14 03:29:21;;;;;;;28.90;21.92;;;8.30;99.90;;;;;;5066685;28;20517;-68
2023/12/14 03:31:49;;;;;;;29.25;23.40;;;8.30;99.90;;;;;;5058337;28;20787;-69
2023/12/14 03:34:16;;;;;;;30.60;22.90;;;8.30;99.90;;;;;;5060405;28;20420;-68
2023/12/14 03:36:42;;;;;;;29.10;22.10;;;8.30;99.90;;;;;;5065377;28;20518;-69
2023/12/14 03:39:10;;;;;;;31.15;23.15;;;8.20;99.90;;;;;;5064502;28;20892;-69
2023/12/14 03:41:36;;;;;;;28.85;22.77;;;8.20;99.90;;;;;;5066393;28;20431;-69
2023/12/14 03:44:03;;;;;;;29.52;23.40;;;8.20;99.90;;;;;;5067364;28;20892;-69
2023/12/14 03:46:30;;;;;;;30.50;22.90;;;8.20;99.90;;;;;;5066668;28;20908;-69
2023/12/14 03:48:58;;;;;;;29.77;23.27;;;8.20;99.90;;;;;;5066079;28;20507;-69
2023/12/14 03:51:25;;;;;;;30.23;22.05;;;8.10;99.90;;;;;;5056665;28;20768;-69
2023/12/14 03:53:52;;;;;;;27.30;22.10;;;8.10;99.90;;;;;;5065006;28;20531;-69
2023/12/14 03:56:18;;;;;;;26.80;22.27;;;8.10;99.90;;;;;;5065104;28;20487;-68
2023/12/14 03:58:45;;;;;;;28.02;22.05;;;8.10;99.90;;;;;;5066261;28;20442;-69
2023/12/14 04:01:17;;;;;;;26.67;22.83;;;8.10;99.90;;;;;;5066240;28;20439;-69
2023/12/14 04:03:44;;;;;;;27.60;22.15;;;8.00;99.90;;;;;;5065445;28;20527;-69
2023/12/14 04:06:12;;;;;;;25.48;21.50;;;8.00;99.90;;;;;;5066000;28;20411;-69
2023/12/14 04:08:40;;;;;;;23.65;20.30;;;8.00;99.90;;;;;;5060937;28;20538;-69
2023/12/14 04:11:07;;;;;;;23.70;19.58;;;8.00;99.90;;;;;;5065680;28;20492;-69
2023/12/14 04:13:34;;;;;;;23.27;19.55;;;7.90;99.90;;;;;;5064955;28;20423;-69
2023/12/14 04:16:01;;;;;;;21.00;18.40;;;7.90;99.90;;;;;;5065480;28;20460;-69
2023/12/14 04:18:28;;;;;;;21.10;18.20;;;7.90;99.90;;;;;;5067497;28;20423;-69
2023/12/14 04:20:54;;;;;;;20.00;17.70;;;7.80;99.90;;;;;;5064322;28;20419;-68
2023/12/14 04:23:22;;;;;;;19.77;17.33;;;7.80;99.90;;;;;;5062560;28;20526;-69
2023/12/14 04:25:49;;;;;;;20.30;17.92;;;7.80;99.90;;;;;;5059833;28;20423;-68
2023/12/14 04:28:16;;;;;;;18.83;16.83;;;7.80;99.90;;;;;;5063596;28;20454;-69
2023/12/14 04:30:42;;;;;;;18.95;16.95;;;7.80;99.90;;;;;;5063881;28;20454;-69
2023/12/14 04:33:09;;;;;;;19.02;16.50;;;7.80;99.90;;;;;;5065916;28;20736;-69
2023/12/14 04:35:37;;;;;;;19.17;16.92;;;7.80;99.90;;;;;;5063958;28;20407;-70
2023/12/14 04:38:03;;;;;;;20.25;17.55;;;7.80;99.90;;;;;;5064499;28;20889;-69
2023/12/14 04:40:32;;;;;;;19.27;17.15;;;7.80;99.90;;;;;;5066046;28;20416;-70
2023/12/14 04:42:59;;;;;;;20.55;17.92;;;7.80;99.90;;;;;;5063628;28;20442;-69
2023/12/14 04:45:26;;;;;;;22.50;19.02;;;7.70;99.90;;;;;;5063127;28;20826;-69
2023/12/14 04:47:52;;;;;;;22.30;18.75;;;7.70;99.90;;;;;;5064893;28;20548;-69
2023/12/14 04:50:20;;;;;;;22.77;18.92;;;7.70;99.90;;;;;;5064664;28;20435;-69
2023/12/14 04:52:47;;;;;;;25.97;20.70;;;7.70;99.90;;;;;;5066148;28;20442;-69
2023/12/14 04:55:14;;;;;;;24.58;19.52;;;7.70;99.90;;;;;;5065296;28;20415;-69
2023/12/14 04:57:43;;;;;;;25.77;19.70;;;7.70;99.90;;;;;;5063581;28;20458;-69
2023/12/14 05:00:10;;;;;;;25.25;20.23;;;7.70;99.90;;;;;;5064666;28;20500;-69
2023/12/14 05:02:37;;;;;;;26.88;20.77;;;7.60;99.90;;;;;;5067810;28;20428;-69
2023/12/14 05:05:05;;;;;;;25.85;20.40;;;7.60;99.90;;;;;;5063975;28;20433;-69
2023/12/14 05:07:31;;;;;;;27.85;20.90;;;7.60;99.90;;;;;;5063725;28;20419;-69
2023/12/14 05:09:58;;;;;;;24.92;19.33;;;7.60;99.90;;;;;;5065005;28;20421;-69
2023/12/14 05:12:26;;;;;;;26.27;19.27;;;7.50;99.90;;;;;;5064899;28;20446;-69
2023/12/14 05:14:54;;;;;;;25.63;18.50;;;7.50;99.90;;;;;;5064825;28;20427;-69
2023/12/14 05:17:21;;;;;;;26.65;20.30;;;7.50;99.90;;;;;;5059485;28;20437;-69
2023/12/14 05:19:48;;;;;;;27.13;20.77;;;7.50;99.90;;;;;;5063131;28;20909;-69
2023/12/14 05:22:14;;;;;;;26.10;21.35;;;7.60;99.90;;;;;;5064889;28;20408;-69
2023/12/14 05:24:41;;;;;;;28.45;21.20;;;7.50;99.90;;;;;;5064700;28;20408;-69
2023/12/14 05:27:08;;;;;;;29.05;22.33;;;7.50;99.90;;;;;;5062548;28;20454;-69
2023/12/14 05:29:35;;;;;;;26.95;21.55;;;7.50;99.90;;;;;;5063672;28;20438;-69
2023/12/14 05:32:03;;;;;;;26.67;21.70;;;7.50;99.90;;;;;;5063337;28;20427;-68
2023/12/14 05:34:30;;;;;;;25.65;21.85;;;7.50;99.90;;;;;;5063116;28;20439;-67
2023/12/14 05:36:56;;;;;;;25.95;21.20;;;7.50;99.90;;;;;;5065019;28;20411;-67
2023/12/14 05:39:23;;;;;;;28.67;22.05;;;7.50;99.90;;;;;;5065564;28;20972;-67
2023/12/14 05:41:50;;;;;;;29.08;22.42;;;7.50;99.90;;;;;;5056015;28;20432;-69
2023/12/14 05:44:17;;;;;;;28.30;20.60;;;7.50;99.90;;;;;;5065582;28;20490;-69
2023/12/14 05:46:43;;;;;;;25.63;20.15;;;7.50;99.90;;;;;;5063751;28;20431;-69
2023/12/14 05:49:11;;;;;;;24.73;21.33;;;7.50;99.90;;;;;;5064187;28;20980;-69
2023/12/14 05:51:39;;;;;;;24.27;18.57;;;7.50;99.90;;;;;;5057711;28;20881;-68
2023/12/14 05:54:06;;;;;;;23.95;17.75;;;7.50;99.90;;;;;;5061447;28;20427;-69
2023/12/14 05:56:33;;;;;;;22.83;17.73;;;7.50;99.90;;;;;;5063925;28;20523;-68
2023/12/14 05:59:00;;;;;;;22.67;17.40;;;7.50;99.90;;;;;;5064614;28;20411;-68
2023/12/14 06:01:26;;;;;;;22.67;17.13;;;7.50;99.90;;;;;;5063464;28;20468;-68
2023/12/14 06:03:53;;;;;;;21.83;17.35;;;7.40;99.90;;;;;;5064709;28;20438;-68
2023/12/14 06:06:21;;;;;;;22.75;17.77;;;7.40;99.90;;;;;;5061475;28;20430;-69
2023/12/14 06:08:48;;;;;;;24.20;17.45;;;7.40;99.90;;;;;;5062744;28;20415;-69
2023/12/14 06:11:15;;;;;;;21.35;16.63;;;7.40;99.90;;;;;;5061896;28;20431;-68
2023/12/14 06:13:41;;;;;;;22.52;17.27;;;7.40;99.90;;;;;;5063607;28;20435;-69
2023/12/14 06:16:12;;;;;;;23.47;17.30;;;7.40;99.90;;;;;;5064267;28;20441;-68
2023/12/14 06:18:41;;;;;;;24.53;18.63;;;7.40;99.90;;;;;;5064013;28;20511;-68
2023/12/14 06:21:07;;;;;;;24.45;18.95;;;7.40;99.90;;;;;;5059334;28;20516;-69
2023/12/14 06:23:36;;;;;;;25.48;17.98;;;7.40;99.90;;;;;;5063161;28;20428;-69
2023/12/14 06:26:04;;;;;;;26.13;19.00;;;7.40;99.90;;;;;;5061825;28;20431;-68
2023/12/14 06:28:31;;;;;;;27.35;20.40;;;7.30;99.90;;;;;;5063788;28;20420;-69
2023/12/14 06:30:57;;;;;;;28.15;18.58;;;7.30;99.90;;;;;;5062705;28;20423;-68
2023/12/14 06:33:24;;;;;;;25.30;18.98;;;7.30;99.90;;;;;;5063293;28;20427;-69
2023/12/14 06:35:51;;;;;;;27.27;19.37;;;7.30;99.90;;;;;;5062652;28;20902;-71
2023/12/14 06:38:17;;;;;;;25.92;20.25;;;7.30;99.90;;;;;;5064295;28;20434;-69
2023/12/14 06:40:46;;;;;;;28.45;19.73;;;7.30;99.90;;;;;;5062804;28;20430;-69
2023/12/14 06:43:12;;;;;;;28.83;20.95;;;7.30;99.90;;;;;;5062517;28;20439;-69
2023/12/14 06:45:39;;;;;;;26.77;20.60;;;7.30;99.90;;;;;;5063739;28;20846;-68
2023/12/14 06:48:06;;;;;;;29.38;21.63;;;7.30;99.90;;;;;;5065170;28;20454;-69
2023/12/14 06:50:33;;;;;;;29.92;22.30;;;7.30;99.90;;;;;;5064120;28;20428;-69
2023/12/14 06:53:00;;;;;;;29.83;21.58;;;7.20;99.90;;;;;;5063777;28;20435;-69
2023/12/14 06:55:26;;;;;;;31.65;21.25;;;7.20;99.90;;;;;;5063882;28;20434;-69
2023/12/14 06:57:55;;;;;;;30.87;22.57;;;7.20;99.90;;;;;;5063166;28;20443;-68
2023/12/14 07:00:21;;;;;;;31.27;23.30;;;7.20;99.90;;;;;;5063797;28;20451;-69
2023/12/14 07:02:48;;;;;;;35.20;25.15;;;7.20;99.90;;;;;;5063721;28;20486;-68
2023/12/14 07:05:15;;;;;;;40.00;26.40;;;7.10;99.90;;;;;;5062631;28;20977;-68
2023/12/14 07:07:42;;;;;;;40.17;26.27;;;7.10;99.90;;;;;;5058152;28;20695;-68
2023/12/14 07:10:09;;;;;;;40.97;26.88;;;7.00;99.90;;;;;;5062920;28;20439;-68
2023/12/14 07:12:36;;;;;;;41.97;27.73;;;6.90;99.90;;;;;;5063666;28;20423;-68
2023/12/14 07:15:05;;;;;;;39.75;26.20;;;6.90;99.90;;;;;;5063700;28;20434;-69
2023/12/14 07:17:31;;;;;;;42.73;28.60;;;6.80;99.90;;;;;;5063335;28;20456;-68
2023/12/14 07:19:58;;;;;;;40.67;26.77;;;6.90;99.90;;;;;;5064023;28;20408;-68
2023/12/14 07:22:25;;;;;;;42.42;27.63;;;6.80;99.90;;;;;;5064694;28;20490;-68
2023/12/14 07:24:52;;;;;;;42.45;28.55;;;6.90;99.90;;;;;;5056335;28;20522;-68
2023/12/14 07:27:18;;;;;;;45.15;27.67;;;6.90;99.90;;;;;;5062641;28;20411;-67
2023/12/14 07:29:45;;;;;;;47.10;28.88;;;6.80;99.90;;;;;;5060373;28;20419;-68
2023/12/14 07:32:13;;;;;;;45.63;26.87;;;6.80;99.90;;;;;;5063269;28;20446;-68
2023/12/14 07:34:40;;;;;;;42.53;25.90;;;6.80;99.90;;;;;;5063287;28;20415;-68
2023/12/14 07:37:07;;;;;;;44.15;25.92;;;6.70;99.90;;;;;;5062393;28;20412;-67
2023/12/14 07:39:33;;;;;;;46.10;26.45;;;6.70;99.90;;;;;;5064763;28;20416;-67
2023/12/14 07:42:01;;;;;;;43.17;26.73;;;6.60;99.90;;;;;;5062134;28;20424;-67
2023/12/14 07:44:29;;;;;;;44.92;26.58;;;6.60;99.90;;;;;;5066355;28;20518;-67
2023/12/14 07:46:56;;;;;;;39.30;23.87;;;6.60;99.90;;;;;;5065844;28;20446;-68
2023/12/14 07:49:24;;;;;;;45.08;24.80;;;6.60;99.90;;;;;;5065591;28;20450;-68
2023/12/14 07:51:51;;;;;;;42.72;24.05;;;6.60;99.90;;;;;;5067999;28;20542;-67
2023/12/14 07:54:18;;;;;;;42.45;25.10;;;6.60;99.90;;;;;;5065381;28;20446;-67
2023/12/14 07:56:45;;;;;;;44.22;25.25;;;6.60;99.90;;;;;;5066595;28;20911;-68
2023/12/14 07:59:11;;;;;;;44.17;24.33;;;6.50;99.90;;;;;;5070752;28;20740;-67
2023/12/14 08:01:38;;;;;;;38.15;22.67;;;6.50;99.90;;;;;;5068262;28;20412;-67
2023/12/14 08:04:05;;;;;;;42.25;24.25;;;6.50;99.90;;;;;;5067640;28;20750;-67
2023/12/14 08:06:33;;;;;;;39.75;23.25;;;6.50;99.90;;;;;;5066837;28;20634;-68
2023/12/14 08:09:00;;;;;;;40.65;23.30;;;6.50;99.90;;;;;;5068134;28;20431;-67
2023/12/14 08:11:26;;;;;;;35.80;21.95;;;6.50;99.90;;;;;;5069172;28;20935;-67
2023/12/14 08:13:53;;;;;;;37.70;21.33;;;6.50;99.90;;;;;;5060642;28;20433;-67
2023/12/14 08:16:20;;;;;;;30.02;19.35;;;6.50;99.90;;;;;;5064070;28;20421;-68
2023/12/14 08:18:48;;;;;;;28.02;17.90;;;6.50;99.90;;;;;;5065587;28;20980;-67
2023/12/14 08:21:15;;;;;;;25.85;16.48;;;6.40;99.90;;;;;;5066990;28;20766;-68
2023/12/14 08:23:43;;;;;;;26.17;16.92;;;6.40;99.90;;;;;;5064592;28;20795;-67
2023/12/14 08:26:10;;;;;;;28.80;16.75;;;6.40;99.90;;;;;;5065983;28;20429;-67
2023/12/14 08:28:36;;;;;;;25.70;16.53;;;6.30;99.90;;;;;;5065211;28;20435;-67
2023/12/14 08:31:04;;;;;;;24.75;16.15;;;6.30;99.90;;;;;;5065856;28;20412;-67
2023/12/14 08:33:30;;;;;;;25.43;16.43;;;6.40;99.90;;;;;;5067025;28;20506;-67
2023/12/14 08:35:58;;;;;;;23.00;15.70;;;6.40;99.90;;;;;;5066140;28;20886;-67
2023/12/14 08:38:25;;;;;;;22.52;14.13;;;6.30;99.90;;;;;;5065908;28;20411;-67
2023/12/14 08:40:53;;;;;;;23.90;15.82;;;6.40;99.90;;;;;;5066762;28;20411;-67
2023/12/14 08:43:20;;;;;;;24.20;14.88;;;6.30;99.90;;;;;;5065279;28;20419;-67
2023/12/14 08:45:48;;;;;;;22.48;14.55;;;6.30;99.90;;;;;;5066061;28;20407;-67
2023/12/14 08:48:15;;;;;;;20.77;14.03;;;6.30;99.90;;;;;;5066295;28;20435;-67
2023/12/14 08:50:41;;;;;;;21.58;14.18;;;6.30;99.90;;;;;;5066091;28;20407;-67
2023/12/14 08:53:08;;;;;;;21.00;14.55;;;6.20;99.90;;;;;;5062479;28;20543;-67
2023/12/14 08:55:35;;;;;;;21.58;13.98;;;6.20;99.90;;;;;;5062653;28;20542;-67
2023/12/14 08:58:03;;;;;;;20.50;14.25;;;6.20;99.90;;;;;;5069810;28;20431;-67
2023/12/14 09:00:30;;;;;;;22.92;15.27;;;6.30;99.90;;;;;;5065654;28;20423;-67
2023/12/14 09:02:57;;;;;;;23.63;15.05;;;6.30;99.90;;;;;;5067078;28;20427;-67
2023/12/14 09:05:23;;;;;;;20.92;15.10;;;6.30;99.90;;;;;;5065983;28;20415;-67
2023/12/14 09:07:52;;;;;;;23.38;15.68;;;6.20;99.90;;;;;;5065270;28;20412;-67
2023/12/14 09:10:19;;;;;;;24.13;14.95;;;6.20;99.90;;;;;;5061379;28;20730;-67
2023/12/14 09:12:45;;;;;;;22.67;15.15;;;6.20;99.90;;;;;;5064545;28;20424;-67
2023/12/14 09:15:15;;;;;;;25.08;15.82;;;6.20;99.90;;;;;;5065587;28;20452;-67
2023/12/14 09:17:43;;;;;;;23.90;16.23;;;6.20;99.90;;;;;;5065977;28;20415;-67
2023/12/14 09:20:11;;;;;;;24.00;16.60;;;6.20;99.90;;;;;;5065714;28;20408;-67
2023/12/14 09:22:37;;;;;;;25.80;17.20;;;6.20;99.90;;;;;;5064722;28;20921;-67
2023/12/14 09:25:05;;;;;;;28.70;18.17;;;6.20;99.90;;;;;;5064227;28;20411;-67
2023/12/14 09:27:32;;;;;;;26.63;16.52;;;6.20;99.90;;;;;;5064179;28;20549;-67
2023/12/14 09:29:58;;;;;;;25.88;16.88;;;6.20;99.90;;;;;;5066071;28;20418;-67
2023/12/14 09:32:26;;;;;;;26.20;17.77;;;6.10;99.90;;;;;;5065189;28;20414;-68
2023/12/14 09:34:56;;;;;;;29.10;18.80;;;6.10;99.90;;;;;;5065506;28;20423;-67
2023/12/14 09:37:23;;;;;;;27.67;18.70;;;6.10;99.90;;;;;;5064206;28;20579;-67
2023/12/14 09:39:49;;;;;;;30.55;20.48;;;6.10;99.90;;;;;;5064134;28;20511;-68
2023/12/14 09:42:20;;;;;;;29.25;19.38;;;6.10;99.90;;;;;;5064872;28;20442;-68
2023/12/14 09:44:48;;;;;;;30.42;19.73;;;6.00;99.90;;;;;;5066463;28;20406;-67
2023/12/14 09:47:15;;;;;;;31.13;18.65;;;6.00;99.90;;;;;;5065437;28;20520;-67
2023/12/14 09:49:44;;;;;;;34.20;20.42;;;6.00;99.90;;;;;;5065614;28;20412;-67
2023/12/14 09:52:11;;;;;;;32.88;20.27;;;6.00;99.90;;;;;;5066048;28;20511;-68
2023/12/14 09:54:38;;;;;;;34.20;19.73;;;6.10;99.90;;;;;;5065919;28;20517;-68
2023/12/14 09:57:05;;;;;;;32.25;20.08;;;6.10;99.90;;;;;;5063955;28;20448;-67
2023/12/14 09:59:32;;;;;;;27.43;17.13;;;6.10;99.90;;;;;;5064588;28;20435;-69
2023/12/14 10:02:10;;;;;;;28.30;18.08;;;6.10;99.90;;;;;;5062230;28;20496;-68
2023/12/14 10:04:37;;;;;;;27.23;17.00;;;6.10;99.90;;;;;;5063083;28;20579;-68
2023/12/14 10:07:07;;;;;;;28.30;17.73;;;6.10;99.90;;;;;;5064501;28;20411;-68
2023/12/14 10:09:34;;;;;;;29.98;17.80;;;6.00;99.90;;;;;;5064666;28;20489;-74
2023/12/14 10:12:06;;;;;;;30.77;18.58;;;6.00;99.90;;;;;;5061058;28;20438;-72
2023/12/14 10:14:34;;;;;;;32.60;19.30;;;6.00;99.90;;;;;;5063995;28;20398;-73
2023/12/14 10:17:16;;;;;;;34.58;20.45;;;6.00;99.90;;;;;;5064139;28;20465;-73
2023/12/14 10:19:44;;;;;;;32.55;19.88;;;6.00;99.90;;;;;;5063041;28;20410;-74
2023/12/14 10:22:12;;;;;;;32.10;19.33;;;6.10;99.90;;;;;;5064814;28;20904;-73
2023/12/14 10:24:40;;;;;;;34.50;20.60;;;6.10;99.90;;;;;;5065154;28;20416;-73
2023/12/14 10:27:08;;;;;;;32.00;19.92;;;6.10;99.90;;;;;;5062086;28;20994;-73
2023/12/14 10:29:35;;;;;;;31.88;20.23;;;6.10;99.90;;;;;;5063249;28;20558;-74
2023/12/14 10:32:06;;;;;;;29.83;19.10;;;6.10;99.90;;;;;;5060371;28;20431;-72
2023/12/14 10:34:33;;;;;;;31.27;19.40;;;6.10;99.90;;;;;;5064980;28;20947;-72
2023/12/14 10:37:00;;;;;;;29.65;19.10;;;6.00;99.90;;;;;;5063316;28;20888;-72
2023/12/14 10:39:30;;;;;;;29.05;19.02;;;6.00;99.90;;;;;;5064620;28;20427;-72
2023/12/14 10:41:58;;;;;;;30.63;19.17;;;6.00;99.90;;;;;;5061535;28;20785;-72
2023/12/14 10:44:28;;;;;;;32.15;20.75;;;6.00;99.90;;;;;;5063361;28;20500;-72
2023/12/14 10:46:56;;;;;;;40.65;22.85;;;6.00;99.90;;;;;;5063626;28;20454;-72
2023/12/14 10:49:25;;;;;;;39.17;21.40;;;6.00;99.90;;;;;;5063641;28;20524;-72
2023/12/14 10:51:54;;;;;;;37.45;22.90;;;6.00;99.90;;;;;;5064070;28;20406;-72
2023/12/14 10:54:22;;;;;;;36.80;22.67;;;6.00;99.90;;;;;;5063989;28;20580;-72
2023/12/14 10:56:50;;;;;;;36.97;23.85;;;6.00;99.90;;;;;;5063732;28;20538;-72
2023/12/14 10:59:17;;;;;;;35.85;22.08;;;5.90;99.90;;;;;;5064382;28;20458;-71
2023/12/14 11:01:44;;;;;;;37.53;23.63;;;5.90;99.90;;;;;;5065704;28;20411;-72
2023/12/14 11:04:14;;;;;;;37.13;23.60;;;5.90;99.90;;;;;;5063634;28;20420;-72
2023/12/14 11:06:46;;;;;;;37.47;23.00;;;5.80;99.90;;;;;;5061411;28;20425;-72
2023/12/14 11:09:15;;;;;;;34.08;22.33;;;5.90;99.90;;;;;;5063299;28;20487;-71
2023/12/14 11:11:44;;;;;;;33.25;22.35;;;5.90;99.90;;;;;;5063150;28;20437;-71
2023/12/14 11:14:13;;;;;;;33.72;22.60;;;5.90;99.90;;;;;;5060243;28;20433;-71
2023/12/14 11:16:45;;;;;;;35.25;22.75;;;5.90;99.90;;;;;;5064380;28;20636;-71
2023/12/14 11:19:31;;;;;;;34.93;22.60;;;6.00;99.90;;;;;;5067619;28;20458;-71
2023/12/14 11:22:12;;;;;;;34.78;23.08;;;6.10;99.90;;;;;;5061195;28;20438;-72
2023/12/14 11:24:43;;;;;;;34.40;21.85;;;6.10;99.90;;;;;;5068018;28;20410;-71
2023/12/14 11:27:10;;;;;;;32.72;21.67;;;6.00;99.90;;;;;;5065398;28;20518;-71
2023/12/14 11:29:38;;;;;;;32.58;22.30;;;6.00;99.90;;;;;;5068204;28;20435;-71
2023/12/14 11:32:07;;;;;;;32.17;20.80;;;6.00;99.90;;;;;;5067883;28;21130;-72
2023/12/14 11:34:34;;;;;;;30.17;20.10;;;6.00;99.90;;;;;;5065767;28;20530;-72
2023/12/14 11:37:00;;;;;;;32.60;23.10;;;6.00;99.90;;;;;;5065167;28;20433;-71
2023/12/14 11:39:31;;;;;;;35.92;21.48;;;6.00;99.90;;;;;;5067999;28;20732;-71
2023/12/14 11:42:02;;;;;;;30.10;21.65;;;6.00;99.90;;;;;;5068355;28;20436;-71
2023/12/14 11:44:29;;;;;;;29.45;21.30;;;6.00;99.90;;;;;;5079165;28;20402;-72
2023/12/14 11:46:57;;;;;;;30.83;22.00;;;6.00;99.90;;;;;;5078584;28;20410;-72
2023/12/14 11:49:26;;;;;;;29.23;20.70;;;5.90;99.90;;;;;;5066331;28;20408;-72
2023/12/14 11:51:53;;;;;;;28.92;20.42;;;6.00;99.90;;;;;;5065319;28;20442;-70
2023/12/14 11:54:20;;;;;;;27.95;20.45;;;5.90;99.90;;;;;;5066053;28;20497;-70
2023/12/14 11:56:48;;;;;;;28.30;20.10;;;5.90;99.90;;;;;;5066497;28;20411;-70
2023/12/14 11:59:17;;;;;;;26.88;19.60;;;5.80;99.90;;;;;;5064696;28;20423;-69
2023/12/14 12:01:56;;;;;;;28.63;19.85;;;5.80;99.90;;;;;;5066598;28;20839;-70
2023/12/14 12:04:23;;;;;;;25.02;18.65;;;5.80;99.90;;;;;;5066472;28;20539;-70
2023/12/14 12:06:50;;;;;;;26.88;18.95;;;5.70;99.90;;;;;;5067074;28;20407;-69
2023/12/14 12:09:41;;;;;;;28.35;19.90;;;5.70;99.90;;;;;;5066670;28;20499;-70
2023/12/14 12:12:09;;;;;;;26.85;20.05;;;5.70;99.90;;;;;;5064408;28;20721;-69
2023/12/14 12:14:36;;;;;;;27.58;19.90;;;5.70;99.90;;;;;;5064982;28;20818;-70
2023/12/14 12:17:05;;;;;;;27.35;19.15;;;5.70;99.90;;;;;;5065537;28;20430;-70
2023/12/14 12:19:33;;;;;;;28.83;20.27;;;5.70;99.90;;;;;;5065391;28;20437;-70
2023/12/14 12:22:00;;;;;;;28.08;20.27;;;5.80;99.90;;;;;;5064555;28;20433;-69
2023/12/14 12:24:27;;;;;;;30.07;20.47;;;5.80;99.90;;;;;;5066546;28;20415;-70
2023/12/14 12:26:53;;;;;;;28.17;20.50;;;5.90;99.90;;;;;;5061818;28;20550;-69
2023/12/14 12:29:20;;;;;;;27.58;19.50;;;5.90;99.90;;;;;;5063692;28;20511;-69
2023/12/14 12:31:47;;;;;;;27.40;19.80;;;5.80;99.90;;;;;;5065131;28;20784;-69
2023/12/14 12:34:15;;;;;;;28.05;19.33;;;5.80;99.90;;;;;;5060458;28;20426;-69
2023/12/14 12:36:42;;;;;;;27.67;19.80;;;5.80;99.90;;;;;;5065449;28;20426;-69